« Back
NWS Peachtree City, Ga » Text Product » AHN Terminal Aerodrome Forecast


Printer-friendly Version
Current Version              Previous Versions:   1  2  3  4  5  6  7  8  9  

Terminal Aerodrome Forecast

607
FTUS42 KFFC 020543
TAFAHN
TAF
KAHN 020543Z 0206/0306 00000KT P6SM FEW100
     FM021500 26004KT P6SM FEW040
     FM021800 24005KT P6SM SCT060
     FM030100 00000KT P6SM FEW100=



USA.gov is the U.S. government's official web portal to all federal, state and local government web resources and services.